FIN7SC LTFM-EFHK
Flight info
| Callsign | FIN7SC |
|---|---|
| Flight time | N/A |
| Altitude | 40000 |
| Route | VADEN1D/35L VADEN DCT BAKLO DCT SOMOV DCT PEMOK DCT ULMIN DCT ELROM DCT TISAD DCT KARIL DCT TOKAJ DCT KEFIR DCT GAVDU DCT VADOL DCT GERVI/N0485F420 M857 SUWGI DCT BERIL DCT RUVAT DCT NEVTO DCT LUTAL DCT ORTAX DCT KEXLE Q11 INTOR |
| Aircraft | A359/H-SDE2E3GHIJ3J4J5LM1ORWXY/LB1D1 |
Departure
| Time | N/A |
|---|---|
| Airport | İstanbul Airport (LTFM) |
Arrival
| Time | 2026-05-07 19:19 |
|---|---|
| Airport | Helsinki Vantaa Airport (EFHK) |
| Time | Latitude | Longitude | Altitude | Speed | Heading |
|---|---|---|---|---|---|
| 2026-05-07 18:27 | 54.92935 | 23.09033 | 42027 ft | 524 kts | 5° |
| 2026-05-07 18:27 | 54.96556 | 23.09852 | 42026 ft | 524 kts | 5° |
| 2026-05-07 18:28 | 55.03756 | 23.11484 | 42032 ft | 524 kts | 5° |
| 2026-05-07 18:28 | 55.10990 | 23.13130 | 42035 ft | 524 kts | 5° |
| 2026-05-07 18:29 | 55.18228 | 23.14783 | 42040 ft | 524 kts | 5° |
| 2026-05-07 18:29 | 55.25463 | 23.16441 | 42038 ft | 524 kts | 5° |
| 2026-05-07 18:30 | 55.32694 | 23.18105 | 42034 ft | 524 kts | 5° |
| 2026-05-07 18:30 | 55.39914 | 23.19772 | 42048 ft | 523 kts | 5° |
| 2026-05-07 18:31 | 55.47101 | 23.21438 | 42041 ft | 523 kts | 4° |
| 2026-05-07 18:31 | 55.54327 | 23.23118 | 42047 ft | 523 kts | 4° |
| 2026-05-07 18:32 | 55.61549 | 23.24805 | 42046 ft | 523 kts | 5° |
| 2026-05-07 18:32 | 55.68774 | 23.26497 | 42050 ft | 523 kts | 5° |
| 2026-05-07 18:33 | 55.75998 | 23.28197 | 42048 ft | 523 kts | 4° |
| 2026-05-07 18:33 | 55.83163 | 23.29888 | 42048 ft | 523 kts | 4° |
| 2026-05-07 18:34 | 55.90380 | 23.31598 | 42049 ft | 523 kts | 4° |
| 2026-05-07 18:34 | 55.97606 | 23.33317 | 42061 ft | 523 kts | 4° |
| 2026-05-07 18:35 | 56.04818 | 23.35039 | 42051 ft | 523 kts | 4° |
| 2026-05-07 18:35 | 56.12033 | 23.36768 | 42059 ft | 523 kts | 4° |
| 2026-05-07 18:36 | 56.19208 | 23.38494 | 42064 ft | 523 kts | 4° |
| 2026-05-07 18:36 | 56.26432 | 23.40239 | 42075 ft | 523 kts | 4° |
| 2026-05-07 18:37 | 56.33647 | 23.41989 | 42070 ft | 523 kts | 4° |
| 2026-05-07 18:37 | 56.40855 | 23.43843 | 42066 ft | 523 kts | 6° |
| 2026-05-07 18:38 | 56.48040 | 23.46090 | 42068 ft | 524 kts | 7° |
| 2026-05-07 18:38 | 56.55214 | 23.48389 | 42068 ft | 523 kts | 6° |
| 2026-05-07 18:39 | 56.62345 | 23.50626 | 42066 ft | 523 kts | 6° |
| 2026-05-07 18:39 | 56.69536 | 23.52855 | 42061 ft | 523 kts | 6° |
| 2026-05-07 18:40 | 56.76714 | 23.55082 | 42067 ft | 523 kts | 6° |
| 2026-05-07 18:40 | 56.83899 | 23.57321 | 42075 ft | 523 kts | 6° |
| 2026-05-07 18:41 | 56.91085 | 23.59571 | 42074 ft | 523 kts | 6° |
| 2026-05-07 18:41 | 56.98210 | 23.61811 | 42072 ft | 523 kts | 6° |
| 2026-05-07 18:42 | 57.05394 | 23.64079 | 42068 ft | 523 kts | 6° |
| 2026-05-07 18:42 | 57.12562 | 23.66350 | 42067 ft | 523 kts | 6° |
| 2026-05-07 18:43 | 57.19742 | 23.68634 | 42068 ft | 523 kts | 6° |
| 2026-05-07 18:43 | 57.26918 | 23.70926 | 42072 ft | 523 kts | 6° |
| 2026-05-07 18:44 | 57.34099 | 23.73229 | 42072 ft | 523 kts | 6° |
| 2026-05-07 18:44 | 57.41232 | 23.75526 | 42068 ft | 523 kts | 6° |
| 2026-05-07 18:45 | 57.48401 | 23.77844 | 42072 ft | 523 kts | 6° |
| 2026-05-07 18:45 | 57.55583 | 23.80172 | 42072 ft | 523 kts | 6° |
| 2026-05-07 18:46 | 57.62744 | 23.82503 | 42095 ft | 523 kts | 6° |
| 2026-05-07 18:46 | 57.69928 | 23.84851 | 42075 ft | 523 kts | 6° |
| 2026-05-07 18:47 | 57.77060 | 23.87200 | 42083 ft | 522 kts | 6° |
| 2026-05-07 18:47 | 57.84235 | 23.89572 | 42085 ft | 522 kts | 6° |
| 2026-05-07 18:48 | 57.91337 | 23.91933 | 42090 ft | 523 kts | 6° |
| 2026-05-07 18:48 | 57.98488 | 23.94797 | 42082 ft | 524 kts | 9° |
| 2026-05-07 18:49 | 58.05599 | 23.97932 | 42081 ft | 524 kts | 9° |
| 2026-05-07 18:49 | 58.12725 | 24.01029 | 42088 ft | 524 kts | 9° |
| 2026-05-07 18:50 | 58.19810 | 24.04053 | 42095 ft | 524 kts | 8° |
| 2026-05-07 18:50 | 58.26898 | 24.07458 | 42086 ft | 527 kts | 14° |
| 2026-05-07 18:51 | 58.33802 | 24.12013 | 42086 ft | 528 kts | 16° |
| 2026-05-07 18:51 | 58.40725 | 24.16734 | 42084 ft | 528 kts | 16° |
| 2026-05-07 18:52 | 58.47651 | 24.21493 | 42091 ft | 529 kts | 16° |
| 2026-05-07 18:52 | 58.54491 | 24.26223 | 41606 ft | 517 kts | 16° |
| 2026-05-07 18:52 | 58.57905 | 24.28586 | 40624 ft | 523 kts | 16° |
| 2026-05-07 18:53 | 58.61348 | 24.30972 | 39697 ft | 528 kts | 15° |
| 2026-05-07 18:53 | 58.63640 | 24.32565 | 39137 ft | 530 kts | 15° |
| 2026-05-07 18:53 | 58.68245 | 24.35775 | 37882 ft | 532 kts | 15° |
| 2026-05-07 18:53 | 58.71730 | 24.38211 | 36892 ft | 532 kts | 15° |
| 2026-05-07 18:54 | 58.75212 | 24.40651 | 35931 ft | 532 kts | 15° |
| 2026-05-07 18:54 | 58.77562 | 24.42300 | 35314 ft | 532 kts | 15° |
| 2026-05-07 18:54 | 58.81003 | 24.44719 | 34368 ft | 532 kts | 15° |
| 2026-05-07 18:54 | 58.84484 | 24.47171 | 33269 ft | 532 kts | 15° |
| 2026-05-07 18:55 | 58.87964 | 24.49627 | 32159 ft | 532 kts | 15° |
| 2026-05-07 18:55 | 58.91438 | 24.52084 | 31058 ft | 532 kts | 15° |
| 2026-05-07 18:55 | 58.94924 | 24.54555 | 29877 ft | 532 kts | 15° |
| 2026-05-07 18:55 | 58.98399 | 24.57024 | 28957 ft | 528 kts | 15° |
| 2026-05-07 18:56 | 59.01825 | 24.59471 | 28467 ft | 521 kts | 15° |
| 2026-05-07 18:56 | 59.05190 | 24.61871 | 27862 ft | 520 kts | 15° |
| 2026-05-07 18:56 | 59.08562 | 24.64283 | 27287 ft | 515 kts | 15° |
| 2026-05-07 18:56 | 59.11914 | 24.66685 | 26723 ft | 510 kts | 15° |
| 2026-05-07 18:57 | 59.15229 | 24.69066 | 26160 ft | 505 kts | 15° |
| 2026-05-07 18:57 | 59.18508 | 24.71427 | 25538 ft | 500 kts | 15° |
| 2026-05-07 18:57 | 59.21760 | 24.73769 | 24742 ft | 498 kts | 15° |
| 2026-05-07 18:57 | 59.25012 | 24.76117 | 24066 ft | 495 kts | 15° |
| 2026-05-07 18:58 | 59.28230 | 24.78446 | 23274 ft | 492 kts | 15° |
| 2026-05-07 18:58 | 59.31420 | 24.80760 | 22558 ft | 486 kts | 15° |
| 2026-05-07 18:58 | 59.34574 | 24.83054 | 21893 ft | 480 kts | 15° |
| 2026-05-07 18:58 | 59.37689 | 24.85324 | 21234 ft | 473 kts | 15° |
| 2026-05-07 18:59 | 59.40754 | 24.87561 | 20556 ft | 467 kts | 15° |
| 2026-05-07 18:59 | 59.43785 | 24.89776 | 19911 ft | 461 kts | 15° |
| 2026-05-07 18:59 | 59.46780 | 24.91949 | 19261 ft | 454 kts | 14° |
| 2026-05-07 18:59 | 59.49760 | 24.93444 | 18642 ft | 441 kts | 3° |
| 2026-05-07 19:00 | 59.52771 | 24.94119 | 17979 ft | 432 kts | 359° |
| 2026-05-07 19:00 | 59.55741 | 24.94558 | 17275 ft | 425 kts | 358° |
| 2026-05-07 19:00 | 59.58683 | 24.94930 | 16530 ft | 421 kts | 358° |
| 2026-05-07 19:00 | 59.61591 | 24.95274 | 15806 ft | 416 kts | 358° |
| 2026-05-07 19:01 | 59.64469 | 24.95605 | 15120 ft | 411 kts | 359° |
| 2026-05-07 19:01 | 59.67296 | 24.95924 | 14429 ft | 407 kts | 359° |
| 2026-05-07 19:01 | 59.70111 | 24.96239 | 13731 ft | 402 kts | 359° |
| 2026-05-07 19:01 | 59.72846 | 24.96545 | 13083 ft | 395 kts | 359° |
| 2026-05-07 19:02 | 59.75571 | 24.96849 | 12298 ft | 391 kts | 360° |
| 2026-05-07 19:02 | 59.78281 | 24.97149 | 11535 ft | 387 kts | 0° |
| 2026-05-07 19:02 | 59.80957 | 24.97447 | 10790 ft | 384 kts | 0° |
| 2026-05-07 19:02 | 59.83617 | 24.97743 | 10057 ft | 380 kts | 1° |
| 2026-05-07 19:03 | 59.86242 | 24.98036 | 9293 ft | 376 kts | 1° |
| 2026-05-07 19:03 | 59.88825 | 24.98325 | 8630 ft | 368 kts | 1° |
| 2026-05-07 19:03 | 59.91350 | 24.98610 | 8226 ft | 355 kts | 2° |
| 2026-05-07 19:03 | 59.93748 | 24.98883 | 8122 ft | 334 kts | 2° |
| 2026-05-07 19:04 | 59.95957 | 24.99136 | 8123 ft | 301 kts | 2° |
| 2026-05-07 19:04 | 59.97919 | 24.99363 | 8131 ft | 268 kts | 1° |
| 2026-05-07 19:04 | 59.99677 | 24.99565 | 8131 ft | 239 kts | 1° |
| 2026-05-07 19:04 | 60.01277 | 24.99746 | 8122 ft | 224 kts | 1° |
| 2026-05-07 19:05 | 60.02874 | 24.99920 | 8116 ft | 234 kts | 1° |
| 2026-05-07 19:05 | 60.04509 | 25.00099 | 8107 ft | 237 kts | 1° |
| 2026-05-07 19:05 | 60.06162 | 25.00284 | 8107 ft | 237 kts | 1° |
| 2026-05-07 19:05 | 60.07811 | 25.00470 | 8107 ft | 237 kts | 1° |
| 2026-05-07 19:06 | 60.09459 | 25.00657 | 8106 ft | 237 kts | 1° |
| 2026-05-07 19:06 | 60.12756 | 25.01032 | 8108 ft | 237 kts | 1° |
| 2026-05-07 19:06 | 60.14400 | 25.01219 | 8106 ft | 237 kts | 1° |
| 2026-05-07 19:07 | 60.16029 | 25.01404 | 8104 ft | 237 kts | 1° |
| 2026-05-07 19:07 | 60.17680 | 25.01592 | 8100 ft | 238 kts | 1° |
| 2026-05-07 19:07 | 60.19327 | 25.01781 | 8058 ft | 238 kts | 1° |
| 2026-05-07 19:07 | 60.20985 | 25.01970 | 7774 ft | 238 kts | 2° |
| 2026-05-07 19:08 | 60.22621 | 25.02158 | 7571 ft | 231 kts | 2° |
| 2026-05-07 19:08 | 60.24192 | 25.02339 | 7439 ft | 221 kts | 2° |
| 2026-05-07 19:08 | 60.25679 | 25.02512 | 7252 ft | 206 kts | 2° |
| 2026-05-07 19:08 | 60.26974 | 25.02661 | 7025 ft | 197 kts | 2° |
| 2026-05-07 19:09 | 60.28313 | 25.02815 | 6845 ft | 190 kts | 2° |
| 2026-05-07 19:09 | 60.29622 | 25.02964 | 6575 ft | 187 kts | 2° |
| 2026-05-07 19:09 | 60.30922 | 25.03113 | 6273 ft | 186 kts | 2° |
| 2026-05-07 19:09 | 60.32200 | 25.03261 | 6059 ft | 180 kts | 2° |
| 2026-05-07 19:10 | 60.33433 | 25.03404 | 5833 ft | 175 kts | 2° |
| 2026-05-07 19:10 | 60.34641 | 25.03544 | 5557 ft | 173 kts | 2° |
| 2026-05-07 19:10 | 60.35841 | 25.03682 | 5282 ft | 172 kts | 1° |
| 2026-05-07 19:10 | 60.37028 | 25.03820 | 5039 ft | 168 kts | 1° |
| 2026-05-07 19:11 | 60.38176 | 25.03953 | 4751 ft | 168 kts | 1° |
| 2026-05-07 19:11 | 60.39348 | 25.04088 | 4410 ft | 169 kts | 1° |
| 2026-05-07 19:11 | 60.40529 | 25.04224 | 4094 ft | 170 kts | 1° |
| 2026-05-07 19:11 | 60.41712 | 25.04361 | 3805 ft | 169 kts | 0° |
| 2026-05-07 19:12 | 60.42886 | 25.04419 | 3504 ft | 169 kts | 354° |
| 2026-05-07 19:12 | 60.44032 | 25.03938 | 3171 ft | 168 kts | 337° |
| 2026-05-07 19:12 | 60.45084 | 25.02958 | 2923 ft | 163 kts | 334° |
| 2026-05-07 19:12 | 60.46076 | 25.01926 | 2684 ft | 159 kts | 334° |
| 2026-05-07 19:13 | 60.47050 | 25.00835 | 2371 ft | 160 kts | 328° |
| 2026-05-07 19:13 | 60.47855 | 24.99310 | 2094 ft | 161 kts | 310° |
| 2026-05-07 19:13 | 60.48319 | 24.97295 | 1979 ft | 154 kts | 289° |
| 2026-05-07 19:13 | 60.48380 | 24.95232 | 1960 ft | 140 kts | 269° |
| 2026-05-07 19:14 | 60.48126 | 24.93445 | 1942 ft | 123 kts | 251° |
| 2026-05-07 19:14 | 60.47760 | 24.91970 | 2016 ft | 123 kts | 250° |
| 2026-05-07 19:14 | 60.47321 | 24.90115 | 2286 ft | 166 kts | 249° |
| 2026-05-07 19:14 | 60.46787 | 24.87941 | 2216 ft | 171 kts | 248° |
| 2026-05-07 19:15 | 60.46129 | 24.86002 | 2109 ft | 166 kts | 229° |
| 2026-05-07 19:15 | 60.45117 | 24.84909 | 2002 ft | 168 kts | 194° |
| 2026-05-07 19:15 | 60.43948 | 24.85141 | 2002 ft | 172 kts | 160° |
| 2026-05-07 19:15 | 60.42876 | 24.86148 | 1998 ft | 172 kts | 151° |
| 2026-05-07 19:16 | 60.41821 | 24.87291 | 1991 ft | 172 kts | 151° |
| 2026-05-07 19:16 | 60.40770 | 24.88427 | 1992 ft | 171 kts | 151° |
| 2026-05-07 19:16 | 60.39712 | 24.89550 | 1926 ft | 169 kts | 152° |
| 2026-05-07 19:16 | 60.38675 | 24.90632 | 1568 ft | 168 kts | 152° |
| 2026-05-07 19:17 | 60.37639 | 24.91705 | 1212 ft | 167 kts | 153° |
| 2026-05-07 19:17 | 60.36614 | 24.92764 | 881 ft | 162 kts | 154° |
| 2026-05-07 19:17 | 60.35655 | 24.93753 | 793 ft | 149 kts | 154° |
| 2026-05-07 19:17 | 60.34745 | 24.94690 | 585 ft | 146 kts | 155° |
| 2026-05-07 19:18 | 60.33835 | 24.95648 | 390 ft | 149 kts | 154° |
| 2026-05-07 19:18 | 60.32909 | 24.96595 | 224 ft | 149 kts | 156° |
| 2026-05-07 19:18 | 60.32022 | 24.97480 | 158 ft | 129 kts | 152° |
| 2026-05-07 19:18 | 60.31330 | 24.98190 | 162 ft | 96 kts | 153° |
| 2026-05-07 19:19 | 60.30948 | 24.98584 | 162 ft | 36 kts | 153° |
| 2026-05-07 19:19 | 60.30746 | 24.98765 | 164 ft | 18 kts | 179° |
| 2026-05-07 19:19 | 60.30677 | 24.98678 | 166 ft | 0 kts | 243° |
| 2026-05-07 19:21 | 60.30667 | 24.98636 | 167 ft | 9 kts | 244° |
| 2026-05-07 19:22 | 60.30658 | 24.98503 | 167 ft | 10 kts | 267° |
| 2026-05-07 19:22 | 60.30684 | 24.98456 | 167 ft | 8 kts | 339° |
| 2026-05-07 19:22 | 60.30802 | 24.98365 | 167 ft | 28 kts | 339° |
| 2026-05-07 19:22 | 60.30990 | 24.98198 | 167 ft | 30 kts | 336° |
| 2026-05-07 19:23 | 60.31181 | 24.98017 | 167 ft | 31 kts | 332° |
| 2026-05-07 19:23 | 60.31372 | 24.97816 | 167 ft | 32 kts | 332° |
| 2026-05-07 19:23 | 60.31574 | 24.97605 | 167 ft | 33 kts | 333° |
| 2026-05-07 19:23 | 60.31776 | 24.97399 | 167 ft | 33 kts | 333° |
| 2026-05-07 19:24 | 60.31983 | 24.97184 | 167 ft | 34 kts | 332° |
| 2026-05-07 19:24 | 60.32194 | 24.96963 | 167 ft | 35 kts | 332° |
| 2026-05-07 19:24 | 60.32359 | 24.96794 | 167 ft | 0 kts | 333° |
| 2026-05-07 19:24 | 60.32363 | 24.96771 | 167 ft | 4 kts | 285° |
| 2026-05-07 19:25 | 60.32354 | 24.96751 | 167 ft | 1 kts | 218° |
| 2026-05-07 19:25 | 60.32340 | 24.96754 | 167 ft | 8 kts | 169° |
| 2026-05-07 19:25 | 60.32266 | 24.96711 | 168 ft | 11 kts | 229° |
| 2026-05-07 19:25 | 60.32199 | 24.96557 | 168 ft | 20 kts | 229° |
| 2026-05-07 19:26 | 60.32088 | 24.96306 | 168 ft | 29 kts | 228° |
| 2026-05-07 19:26 | 60.31932 | 24.95967 | 168 ft | 34 kts | 227° |
| 2026-05-07 19:26 | 60.31769 | 24.95610 | 168 ft | 35 kts | 227° |
| 2026-05-07 19:26 | 60.31612 | 24.95260 | 168 ft | 19 kts | 228° |
| 2026-05-07 19:27 | 60.31583 | 24.95197 | 168 ft | 12 kts | 228° |
| 2026-05-07 19:27 | 60.31516 | 24.95146 | 168 ft | 6 kts | 159° |
| 2026-05-07 19:27 | 60.31480 | 24.95211 | 168 ft | 8 kts | 138° |
| 2026-05-07 19:27 | 60.31443 | 24.95307 | 168 ft | 8 kts | 101° |
| 2026-05-07 19:28 | 60.31455 | 24.95356 | 168 ft | 0 kts | 51° |
| 2026-05-07 19:34 | 60.31463 | 24.95614 | 168 ft | 0 kts | 138° |